createdAt,value
2019-02-27T00:00:44.936Z,99878.00
2019-02-27T00:03:12.136Z,99875.00
2019-02-27T00:05:41.823Z,99881.00
2019-02-27T00:08:08.475Z,99879.00
2019-02-27T00:10:36.911Z,99887.00
2019-02-27T00:13:04.616Z,99882.00
2019-02-27T00:15:31.716Z,99886.00
2019-02-27T00:17:58.895Z,99888.00
2019-02-27T00:20:26.075Z,99872.00
2019-02-27T00:22:53.196Z,99877.00
2019-02-27T00:25:20.502Z,99875.00
2019-02-27T00:27:49.265Z,99881.00
2019-02-27T00:30:16.735Z,99876.00
2019-02-27T00:32:43.876Z,99878.00
2019-02-27T00:35:10.997Z,99872.00
2019-02-27T00:37:38.196Z,99867.00
2019-02-27T00:40:06.289Z,99876.00
2019-02-27T00:42:33.975Z,99874.00
2019-02-27T00:45:01.125Z,99869.00
2019-02-27T00:47:28.355Z,99877.00
2019-02-27T00:49:55.435Z,99872.00
2019-02-27T00:52:22.544Z,99873.00
2019-02-27T00:54:49.696Z,99869.00
2019-02-27T00:57:20.498Z,99857.00
2019-02-27T00:59:46.155Z,99868.00
2019-02-27T01:02:13.276Z,99861.00
2019-02-27T01:04:40.298Z,99857.00
2019-02-27T01:07:07.497Z,99861.00
2019-02-27T01:09:34.621Z,99860.00
2019-02-27T01:12:01.777Z,99869.00
2019-02-27T01:14:28.896Z,99872.00
2019-02-27T01:16:55.971Z,99862.00
2019-02-27T01:19:23.055Z,99864.00
2019-02-27T01:21:50.217Z,99859.00
2019-02-27T01:24:18.045Z,99857.00
2019-02-27T01:26:45.278Z,99852.00
2019-02-27T01:29:12.396Z,99849.00
2019-02-27T01:31:39.515Z,99842.00
2019-02-27T01:34:11.183Z,99855.00
2019-02-27T01:36:35.855Z,99848.00
2019-02-27T01:39:08.989Z,99845.00
2019-02-27T01:41:35.556Z,99850.00
2019-02-27T01:44:02.619Z,99842.00
2019-02-27T01:46:29.777Z,99845.00
2019-02-27T01:48:56.936Z,99845.00
2019-02-27T01:51:25.728Z,99845.00
2019-02-27T01:53:53.016Z,99843.00
2019-02-27T01:56:20.136Z,99849.00
2019-02-27T01:58:47.236Z,99846.00
2019-02-27T02:01:14.417Z,99838.00
2019-02-27T02:03:41.699Z,99834.00
2019-02-27T02:06:08.977Z,99830.00
2019-02-27T02:08:36.096Z,99834.00
2019-02-27T02:11:03.295Z,99834.00
2019-02-27T02:13:48.063Z,99825.00
2019-02-27T02:16:40.117Z,99824.00
2019-02-27T02:19:40.156Z,99824.00
2019-02-27T02:22:15.596Z,99832.00
2019-02-27T02:25:40.617Z,99835.00
2019-02-27T02:28:27.881Z,99829.00
2019-02-27T02:31:18.060Z,99829.00
2019-02-27T02:33:53.635Z,99830.00
2019-02-27T02:36:47.070Z,99825.00
2019-02-27T02:39:54.223Z,99827.00
2019-02-27T02:42:41.089Z,99819.00
2019-02-27T02:45:32.749Z,99826.00
2019-02-27T02:48:35.809Z,99821.00
2019-02-27T02:51:40.330Z,99819.00
2019-02-27T02:54:48.918Z,99819.00
2019-02-27T02:57:38.165Z,99823.00
2019-02-27T03:00:37.846Z,99820.00
2019-02-27T03:03:35.971Z,99819.00
2019-02-27T03:06:34.573Z,99812.00
2019-02-27T03:09:10.269Z,99803.00
2019-02-27T03:11:54.746Z,99817.00
2019-02-27T03:14:31.069Z,99817.00
2019-02-27T03:17:24.709Z,99829.00
2019-02-27T03:20:00.009Z,99821.00
2019-02-27T03:23:16.320Z,99825.00
2019-02-27T03:26:31.531Z,99818.00
2019-02-27T03:29:16.925Z,99819.00
2019-02-27T03:32:14.574Z,99821.00
2019-02-27T03:35:02.159Z,99830.00
2019-02-27T03:37:49.549Z,99828.00
2019-02-27T03:40:28.170Z,99841.00
2019-02-27T03:43:26.142Z,99835.00
2019-02-27T03:46:24.732Z,99834.00
2019-02-27T03:49:03.742Z,99836.00
2019-02-27T03:51:46.069Z,99832.00
2019-02-27T03:54:43.071Z,99828.00
2019-02-27T03:57:46.189Z,99834.00
2019-02-27T04:00:42.022Z,99832.00
2019-02-27T04:03:46.231Z,99817.00
2019-02-27T04:06:34.112Z,99822.00
2019-02-27T04:09:01.246Z,99834.00
2019-02-27T04:11:28.672Z,99826.00
2019-02-27T04:14:03.235Z,99837.00
2019-02-27T04:16:28.881Z,99834.00
2019-02-27T04:18:54.109Z,99829.00
2019-02-27T04:21:24.949Z,99842.00
2019-02-27T04:23:51.689Z,99832.00
2019-02-27T04:26:19.492Z,99832.00
2019-02-27T04:28:46.772Z,99838.00
2019-02-27T04:31:13.872Z,99837.00
2019-02-27T04:33:40.951Z,99833.00
2019-02-27T04:36:12.329Z,99847.00
2019-02-27T04:38:37.109Z,99847.00
2019-02-27T04:41:04.250Z,99847.00
2019-02-27T04:43:32.210Z,99846.00
2019-02-27T04:45:59.911Z,99840.00
2019-02-27T04:48:29.921Z,99847.00
2019-02-27T04:50:56.130Z,99847.00
2019-02-27T04:53:23.209Z,99845.00
2019-02-27T04:55:50.635Z,99846.00
2019-02-27T04:58:18.453Z,99847.00
2019-02-27T05:00:45.630Z,99852.00
2019-02-27T05:03:12.758Z,99847.00
2019-02-27T05:05:41.396Z,99850.00
2019-02-27T05:08:09.147Z,99842.00
2019-02-27T05:10:38.179Z,99851.00
2019-02-27T05:13:05.282Z,99850.00
2019-02-27T05:15:32.369Z,99844.00
2019-02-27T05:17:59.529Z,99848.00
2019-02-27T05:20:27.109Z,99842.00
2019-02-27T05:22:54.273Z,99844.00
2019-02-27T05:25:21.372Z,99859.00
2019-02-27T05:27:48.531Z,99864.00
2019-02-27T05:30:15.650Z,99861.00
2019-02-27T05:32:42.770Z,99861.00
2019-02-27T05:35:09.830Z,99858.00
2019-02-27T05:37:39.271Z,99871.00
2019-02-27T05:40:09.270Z,99871.00
2019-02-27T05:42:38.813Z,99880.00
2019-02-27T05:45:09.929Z,99881.00
2019-02-27T05:47:36.990Z,99878.00
2019-02-27T05:50:08.869Z,99892.00
2019-02-27T05:52:35.989Z,99891.00
2019-02-27T05:55:06.448Z,99895.00
2019-02-27T05:57:33.428Z,99904.00
2019-02-27T06:00:02.553Z,99914.00
2019-02-27T06:02:29.791Z,99910.00
2019-02-27T06:04:59.144Z,99911.00
2019-02-27T06:07:26.331Z,99908.00
2019-02-27T06:09:53.515Z,99915.00
2019-02-27T06:12:20.649Z,99912.00
2019-02-27T06:14:47.910Z,99911.00
2019-02-27T06:17:15.089Z,99913.00
2019-02-27T06:19:42.391Z,99914.00
2019-02-27T06:22:09.433Z,99918.00
2019-02-27T06:24:36.630Z,99915.00
2019-02-27T06:27:06.085Z,99904.00
2019-02-27T06:29:32.769Z,99912.00
2019-02-27T06:31:59.871Z,99911.00
2019-02-27T06:34:26.989Z,99920.00
2019-02-27T06:36:54.069Z,99918.00
2019-02-27T06:39:21.152Z,99916.00
2019-02-27T06:41:49.780Z,99920.00
2019-02-27T06:44:19.022Z,99914.00
2019-02-27T06:46:46.510Z,99920.00
2019-02-27T06:49:17.298Z,99909.00
2019-02-27T06:51:42.621Z,99911.00
2019-02-27T06:54:09.747Z,99913.00
2019-02-27T06:56:36.866Z,99917.00
2019-02-27T06:59:04.045Z,99927.00
2019-02-27T07:01:31.187Z,99926.00
2019-02-27T07:03:58.346Z,99932.00
2019-02-27T07:06:25.488Z,99932.00
2019-02-27T07:08:52.606Z,99925.00
2019-02-27T07:11:19.769Z,99932.00
2019-02-27T07:13:46.928Z,99925.00
2019-02-27T07:16:14.068Z,99924.00
2019-02-27T07:18:41.790Z,99926.00
2019-02-27T07:21:09.649Z,99932.00
2019-02-27T07:23:36.849Z,99939.00
2019-02-27T07:26:04.175Z,99942.00
2019-02-27T07:28:31.270Z,99938.00
2019-02-27T07:30:58.469Z,99941.00
2019-02-27T07:33:25.588Z,99929.00
2019-02-27T07:35:52.648Z,99931.00
2019-02-27T07:38:21.649Z,99933.00
2019-02-27T07:40:48.808Z,99930.00
2019-02-27T07:43:15.988Z,99934.00
2019-02-27T07:45:45.443Z,99931.00
2019-02-27T07:48:12.168Z,99931.00
2019-02-27T07:50:39.249Z,99942.00
2019-02-27T07:53:06.508Z,99939.00
2019-02-27T07:55:33.613Z,99939.00
2019-02-27T07:58:00.710Z,99926.00
2019-02-27T08:00:27.886Z,99931.00
2019-02-27T08:02:54.989Z,99920.00
2019-02-27T08:05:22.128Z,99921.00
2019-02-27T08:07:49.958Z,99926.00
2019-02-27T08:10:23.308Z,99921.00
2019-02-27T08:12:50.349Z,99929.00
2019-02-27T08:15:19.042Z,99928.00
2019-02-27T08:17:46.357Z,99921.00
2019-02-27T08:20:20.248Z,99922.00
2019-02-27T08:22:44.808Z,99920.00
2019-02-27T08:25:15.229Z,99924.00
2019-02-27T08:27:43.739Z,99920.00
2019-02-27T08:30:23.868Z,99916.00
2019-02-27T08:32:51.089Z,99913.00
2019-02-27T08:35:18.283Z,99902.00
2019-02-27T08:37:45.769Z,99897.00
2019-02-27T08:40:13.890Z,99906.00
2019-02-27T08:42:41.129Z,99904.00
2019-02-27T08:45:20.198Z,99896.00
2019-02-27T08:47:45.968Z,99895.00
2019-02-27T08:50:20.989Z,99894.00
2019-02-27T08:52:51.411Z,99898.00
2019-02-27T08:55:22.084Z,99888.00
2019-02-27T08:57:49.739Z,99886.00
2019-02-27T09:00:28.068Z,99881.00
2019-02-27T09:02:55.808Z,99879.00
2019-02-27T09:05:23.803Z,99874.00
2019-02-27T09:07:50.850Z,99879.00
2019-02-27T09:10:23.229Z,99874.00
2019-02-27T09:12:51.812Z,99859.00
2019-02-27T09:15:19.129Z,99859.00
2019-02-27T09:17:46.710Z,99855.00
2019-02-27T09:20:19.665Z,99849.00
2019-02-27T09:22:46.511Z,99849.00
2019-02-27T09:25:13.969Z,99847.00
2019-02-27T09:27:41.270Z,99846.00
2019-02-27T09:30:13.388Z,99845.00
2019-02-27T09:32:40.472Z,99850.00
2019-02-27T09:35:09.930Z,99833.00
2019-02-27T09:37:37.048Z,99837.00
2019-02-27T09:40:30.269Z,99826.00
2019-02-27T09:42:57.708Z,99832.00
2019-02-27T09:45:28.389Z,99834.00
2019-02-27T09:47:59.528Z,99828.00
2019-02-27T09:50:47.575Z,99826.00
2019-02-27T09:53:12.568Z,99831.00
2019-02-27T09:55:39.669Z,99827.00
2019-02-27T09:58:11.217Z,99824.00
2019-02-27T10:01:03.135Z,99828.00
2019-02-27T10:03:30.409Z,99823.00
2019-02-27T10:05:57.508Z,99819.00
2019-02-27T10:08:25.540Z,99819.00
2019-02-27T10:10:53.230Z,99806.00
2019-02-27T10:13:20.368Z,99818.00
2019-02-27T10:15:47.509Z,99798.00
2019-02-27T10:18:18.039Z,99803.00
2019-02-27T10:20:44.428Z,99794.00
2019-02-27T10:23:11.488Z,99790.00
2019-02-27T10:25:43.201Z,99788.00
2019-02-27T10:28:07.708Z,99781.00
2019-02-27T10:30:34.790Z,99774.00
2019-02-27T10:33:03.452Z,99767.00
2019-02-27T10:35:31.068Z,99768.00
2019-02-27T10:37:58.221Z,99766.00
2019-02-27T10:40:26.548Z,99758.00
2019-02-27T10:42:53.691Z,99762.00
2019-02-27T10:45:20.769Z,99759.00
2019-02-27T10:47:47.828Z,99758.00
2019-02-27T10:50:15.348Z,99754.00
2019-02-27T10:52:42.453Z,99750.00
2019-02-27T10:55:31.150Z,99747.00
2019-02-27T10:57:58.329Z,99737.00
2019-02-27T11:00:32.529Z,99744.00
2019-02-27T11:03:00.751Z,99738.00
2019-02-27T11:05:39.370Z,99732.00
2019-02-27T11:08:06.870Z,99726.00
2019-02-27T11:10:35.291Z,99722.00
2019-02-27T11:13:05.702Z,99713.00
2019-02-27T11:15:31.489Z,99712.00
2019-02-27T11:18:04.455Z,99710.00
2019-02-27T11:20:27.630Z,99714.00
2019-02-27T11:22:54.769Z,99700.00
2019-02-27T11:25:29.389Z,99702.00
2019-02-27T11:27:56.689Z,99692.00
2019-02-27T11:30:52.929Z,99696.00
2019-02-27T11:33:25.743Z,99689.00
2019-02-27T11:35:49.018Z,99690.00
2019-02-27T11:38:16.455Z,99687.00
2019-02-27T11:40:43.590Z,99677.00
2019-02-27T11:43:10.809Z,99677.00
2019-02-27T11:45:38.011Z,99665.00
2019-02-27T11:48:05.110Z,99659.00
2019-02-27T11:50:32.290Z,99653.00
2019-02-27T11:53:02.849Z,99652.00
2019-02-27T11:55:28.809Z,99649.00
2019-02-27T11:57:55.910Z,99647.00
2019-02-27T12:00:26.771Z,99636.00
2019-02-27T12:02:54.791Z,99631.00
2019-02-27T12:05:21.868Z,99630.00
2019-02-27T12:07:51.190Z,99619.00
2019-02-27T12:10:24.994Z,99620.00
2019-02-27T12:12:52.246Z,99622.00
2019-02-27T12:15:20.666Z,99614.00
2019-02-27T12:17:48.146Z,99596.00
2019-02-27T12:20:18.953Z,99599.00
2019-02-27T12:22:46.047Z,99598.00
2019-02-27T12:25:15.567Z,99595.00
2019-02-27T12:27:49.208Z,99589.00
2019-02-27T12:30:20.706Z,99591.00
2019-02-27T12:32:48.189Z,99591.00
2019-02-27T12:35:26.029Z,99580.00
2019-02-27T12:37:53.386Z,99577.00
2019-02-27T12:40:25.006Z,99571.00
2019-02-27T12:42:51.253Z,99566.00
2019-02-27T12:45:25.747Z,99567.00
2019-02-27T12:47:54.066Z,99562.00
2019-02-27T12:50:26.877Z,99549.00
2019-02-27T12:52:52.691Z,99547.00
2019-02-27T12:55:20.787Z,99542.00
2019-02-27T12:57:52.454Z,99533.00
2019-02-27T13:00:31.888Z,99542.00
2019-02-27T13:02:59.358Z,99533.00
2019-02-27T13:05:27.634Z,99530.00
2019-02-27T13:07:54.756Z,99521.00
2019-02-27T13:10:24.807Z,99524.00
2019-02-27T13:12:52.585Z,99520.00
2019-02-27T13:15:41.003Z,99519.00
2019-02-27T13:18:08.707Z,99515.00
2019-02-27T13:20:35.829Z,99514.00
2019-02-27T13:23:05.144Z,99509.00
2019-02-27T13:25:32.027Z,99513.00
2019-02-27T13:27:59.287Z,99499.00
2019-02-27T13:30:27.506Z,99491.00
2019-02-27T13:32:54.690Z,99493.00
2019-02-27T13:35:23.131Z,99489.00
2019-02-27T13:37:51.166Z,99489.00
2019-02-27T13:40:23.986Z,99487.00
2019-02-27T13:42:53.393Z,99492.00
2019-02-27T13:45:30.027Z,99483.00
2019-02-27T13:47:58.996Z,99476.00
2019-02-27T13:50:27.066Z,99479.00
2019-02-27T13:52:54.270Z,99467.00
2019-02-27T13:55:22.947Z,99461.00
2019-02-27T13:57:50.286Z,99460.00
2019-02-27T14:00:27.708Z,99460.00
2019-02-27T14:02:54.886Z,99454.00
2019-02-27T14:05:22.006Z,99451.00
2019-02-27T14:07:49.128Z,99441.00
2019-02-27T14:10:36.106Z,99439.00
2019-02-27T14:13:03.329Z,99431.00
2019-02-27T14:15:31.766Z,99434.00
2019-02-27T14:17:59.066Z,99430.00
2019-02-27T14:20:27.284Z,99432.00
2019-02-27T14:22:55.313Z,99427.00
2019-02-27T14:25:32.353Z,99429.00
2019-02-27T14:27:56.993Z,99418.00
2019-02-27T14:30:38.231Z,99419.00
2019-02-27T14:33:05.299Z,99413.00
2019-02-27T14:35:36.379Z,99407.00
2019-02-27T14:38:02.038Z,99405.00
2019-02-27T14:40:29.155Z,99398.00
2019-02-27T14:42:56.240Z,99400.00
2019-02-27T14:45:24.670Z,99395.00
2019-02-27T14:47:52.181Z,99396.00
2019-02-27T14:50:22.949Z,99386.00
2019-02-27T14:52:50.181Z,99393.00
2019-02-27T14:55:18.467Z,99385.00
2019-02-27T14:57:50.090Z,99380.00
2019-02-27T15:00:30.002Z,99389.00
2019-02-27T15:02:57.100Z,99396.00
2019-02-27T15:05:24.240Z,99381.00
2019-02-27T15:07:53.675Z,99381.00
2019-02-27T15:10:23.182Z,99378.00
2019-02-27T15:12:53.869Z,99372.00
2019-02-27T15:15:28.020Z,99378.00
2019-02-27T15:17:55.488Z,99375.00
2019-02-27T15:20:25.186Z,99369.00
2019-02-27T15:22:52.805Z,99368.00
2019-02-27T15:25:20.835Z,99361.00
2019-02-27T15:27:47.872Z,99366.00
2019-02-27T15:30:32.312Z,99367.00
2019-02-27T15:33:03.837Z,99368.00
2019-02-27T15:35:28.569Z,99359.00
2019-02-27T15:37:55.831Z,99369.00
2019-02-27T15:40:30.542Z,99371.00
2019-02-27T15:42:58.161Z,99365.00
2019-02-27T15:45:27.300Z,99357.00
2019-02-27T15:47:54.337Z,99357.00
2019-02-27T15:50:31.304Z,99361.00
2019-02-27T15:52:58.395Z,99347.00
2019-02-27T15:55:25.396Z,99344.00
2019-02-27T15:57:53.999Z,99338.00
2019-02-27T16:00:24.680Z,99344.00
2019-02-27T16:02:51.910Z,99341.00
2019-02-27T16:05:19.131Z,99328.00
2019-02-27T16:07:49.395Z,99326.00
2019-02-27T16:10:20.731Z,99331.00
2019-02-27T16:12:48.030Z,99321.00
2019-02-27T16:15:18.671Z,99310.00
2019-02-27T16:17:45.923Z,99315.00
2019-02-27T16:20:16.742Z,99317.00
2019-02-27T16:22:44.139Z,99312.00
2019-02-27T16:25:19.890Z,99304.00
2019-02-27T16:27:46.919Z,99300.00
2019-02-27T16:30:33.118Z,99298.00
2019-02-27T16:33:00.451Z,99292.00
2019-02-27T16:35:27.600Z,99291.00
2019-02-27T16:37:57.676Z,99292.00
2019-02-27T16:40:28.704Z,99288.00
2019-02-27T16:42:55.789Z,99287.00
2019-02-27T16:45:36.993Z,99290.00
2019-02-27T16:48:05.637Z,99288.00
2019-02-27T16:50:32.930Z,99281.00
2019-02-27T16:53:00.057Z,99282.00
2019-02-27T16:55:28.110Z,99282.00
2019-02-27T16:57:57.431Z,99277.00
2019-02-27T17:00:29.990Z,99286.00
2019-02-27T17:02:57.240Z,99285.00
2019-02-27T17:05:24.528Z,99276.00
2019-02-27T17:07:51.804Z,99288.00
2019-02-27T17:10:33.930Z,99287.00
2019-02-27T17:13:01.255Z,99287.00
2019-02-27T17:15:28.571Z,99282.00
2019-02-27T17:17:55.673Z,99280.00
2019-02-27T17:20:25.324Z,99272.00
2019-02-27T17:22:52.512Z,99281.00
2019-02-27T17:25:19.591Z,99278.00
2019-02-27T17:27:49.891Z,99285.00
2019-02-27T17:30:37.736Z,99289.00
2019-02-27T17:33:05.305Z,99286.00
2019-02-27T17:35:32.699Z,99279.00
2019-02-27T17:37:59.795Z,99284.00
2019-02-27T17:40:29.045Z,99285.00
2019-02-27T17:42:56.028Z,99271.00
2019-02-27T17:45:47.751Z,99266.00
2019-02-27T17:48:14.892Z,99250.00
2019-02-27T17:50:42.033Z,99256.00
2019-02-27T17:53:09.192Z,99254.00
2019-02-27T17:55:38.156Z,99256.00
2019-02-27T17:58:05.396Z,99246.00
2019-02-27T18:00:37.412Z,99241.00
2019-02-27T18:03:05.817Z,99241.00
2019-02-27T18:05:33.405Z,99234.00
2019-02-27T18:08:00.574Z,99241.00
2019-02-27T18:10:27.691Z,99240.00
2019-02-27T18:12:54.813Z,99244.00
2019-02-27T18:15:24.205Z,99240.00
2019-02-27T18:17:51.463Z,99247.00
2019-02-27T18:20:24.173Z,99239.00
2019-02-27T18:22:49.573Z,99238.00
2019-02-27T18:25:18.131Z,99237.00
2019-02-27T18:27:47.718Z,99225.00
2019-02-27T18:30:18.778Z,99222.00
2019-02-27T18:32:47.732Z,99225.00
2019-02-27T18:35:15.873Z,99209.00
2019-02-27T18:37:43.153Z,99212.00
2019-02-27T18:40:14.913Z,99208.00
2019-02-27T18:42:42.092Z,99209.00
2019-02-27T18:45:19.051Z,99210.00
2019-02-27T18:47:46.188Z,99205.00
2019-02-27T18:50:14.846Z,99192.00
2019-02-27T18:52:42.019Z,99202.00
2019-02-27T18:55:14.339Z,99210.00
2019-02-27T18:57:45.822Z,99219.00
2019-02-27T19:00:20.221Z,99219.00
2019-02-27T19:02:47.791Z,99219.00
2019-02-27T19:05:14.944Z,99221.00
2019-02-27T19:07:42.206Z,99220.00
2019-02-27T19:10:14.882Z,99212.00
2019-02-27T19:12:42.524Z,99209.00
2019-02-27T19:15:22.058Z,99217.00
2019-02-27T19:17:49.881Z,99218.00
2019-02-27T19:20:24.717Z,99217.00
2019-02-27T19:22:50.640Z,99225.00
2019-02-27T19:25:17.821Z,99223.00
2019-02-27T19:27:44.956Z,99216.00
2019-02-27T19:30:16.042Z,99213.00
2019-02-27T19:32:43.456Z,99207.00
2019-02-27T19:35:11.474Z,99209.00
2019-02-27T19:37:39.144Z,99209.00
2019-02-27T19:40:11.954Z,99203.00
2019-02-27T19:43:01.009Z,99204.00
2019-02-27T19:45:28.605Z,99201.00
2019-02-27T19:47:55.976Z,99204.00
2019-02-27T19:50:24.323Z,99205.00
2019-02-27T19:52:51.403Z,99204.00
2019-02-27T19:55:19.078Z,99212.00
2019-02-27T19:57:46.397Z,99208.00
2019-02-27T20:00:33.880Z,99197.00
2019-02-27T20:03:01.103Z,99194.00
2019-02-27T20:05:27.339Z,99190.00
2019-02-27T20:07:54.891Z,99200.00
2019-02-27T20:10:22.037Z,99188.00
2019-02-27T20:12:52.973Z,99187.00
2019-02-27T20:15:20.121Z,99178.00
2019-02-27T20:17:47.641Z,99178.00
2019-02-27T20:20:18.381Z,99170.00
2019-02-27T20:22:45.900Z,99173.00
2019-02-27T20:25:18.269Z,99175.00
2019-02-27T20:27:45.465Z,99164.00
2019-02-27T20:30:22.563Z,99161.00
2019-02-27T20:32:49.821Z,99162.00
2019-02-27T20:35:17.213Z,99157.00
2019-02-27T20:37:46.005Z,99161.00
2019-02-27T20:40:17.501Z,99160.00
2019-02-27T20:42:50.022Z,99165.00
2019-02-27T20:45:23.001Z,99162.00
2019-02-27T20:47:57.626Z,99151.00
2019-02-27T20:50:44.501Z,99147.00
2019-02-27T20:53:13.603Z,99151.00
2019-02-27T20:55:40.781Z,99153.00
2019-02-27T20:58:07.821Z,99146.00
2019-02-27T21:00:36.612Z,99145.00
2019-02-27T21:03:04.341Z,99154.00
2019-02-27T21:05:32.381Z,99153.00
2019-02-27T21:08:01.975Z,99154.00
2019-02-27T21:10:31.181Z,99149.00
2019-02-27T21:12:58.361Z,99148.00
2019-02-27T21:15:26.300Z,99145.00
2019-02-27T21:17:57.554Z,99145.00
2019-02-27T21:20:22.516Z,99145.00
2019-02-27T21:22:49.781Z,99147.00
2019-02-27T21:25:17.000Z,99145.00
2019-02-27T21:27:44.087Z,99150.00
2019-02-27T21:30:19.096Z,99146.00
2019-02-27T21:32:46.328Z,99147.00
2019-02-27T21:35:13.462Z,99139.00
2019-02-27T21:37:44.563Z,99138.00
2019-02-27T21:40:14.360Z,99135.00
2019-02-27T21:42:41.501Z,99131.00
2019-02-27T21:45:20.021Z,99129.00
2019-02-27T21:47:51.418Z,99118.00
2019-02-27T21:50:25.080Z,99121.00
2019-02-27T21:52:54.265Z,99115.00
2019-02-27T21:55:21.400Z,99108.00
2019-02-27T21:57:48.564Z,99109.00
2019-02-27T22:00:23.516Z,99110.00
2019-02-27T22:02:52.570Z,99112.00
2019-02-27T22:05:19.842Z,99113.00
2019-02-27T22:07:47.228Z,99104.00
2019-02-27T22:10:19.372Z,99113.00
2019-02-27T22:12:44.969Z,99103.00
2019-02-27T22:15:27.948Z,99103.00
2019-02-27T22:17:55.114Z,99104.00
2019-02-27T22:20:22.269Z,99103.00
2019-02-27T22:22:49.991Z,99102.00
2019-02-27T22:25:17.130Z,99092.00
2019-02-27T22:27:45.889Z,99087.00
2019-02-27T22:30:18.631Z,99087.00
2019-02-27T22:32:48.128Z,99087.00
2019-02-27T22:35:14.768Z,99072.00
2019-02-27T22:37:41.989Z,99070.00
2019-02-27T22:40:15.888Z,99069.00
2019-02-27T22:42:45.569Z,99063.00
2019-02-27T22:45:15.891Z,99064.00
2019-02-27T22:47:42.969Z,99068.00
2019-02-27T22:50:16.073Z,99067.00
2019-02-27T22:52:43.149Z,99056.00
2019-02-27T22:55:10.917Z,99059.00
2019-02-27T22:57:38.309Z,99058.00
2019-02-27T23:00:21.769Z,99051.00
2019-02-27T23:02:49.029Z,99050.00
2019-02-27T23:05:16.289Z,99063.00
2019-02-27T23:07:43.429Z,99053.00
2019-02-27T23:10:10.829Z,99050.00
2019-02-27T23:12:39.480Z,99052.00
2019-02-27T23:15:06.949Z,99052.00
2019-02-27T23:17:34.110Z,99061.00
2019-02-27T23:20:01.288Z,99055.00
2019-02-27T23:22:28.904Z,99059.00
2019-02-27T23:24:56.950Z,99049.00
2019-02-27T23:27:26.051Z,99043.00
2019-02-27T23:29:53.130Z,99047.00
2019-02-27T23:32:20.269Z,99042.00
2019-02-27T23:34:47.491Z,99030.00
2019-02-27T23:37:14.609Z,99029.00
2019-02-27T23:39:42.932Z,99033.00
2019-02-27T23:42:10.809Z,99034.00
2019-02-27T23:44:38.789Z,99030.00
2019-02-27T23:47:06.868Z,99032.00
2019-02-27T23:49:34.049Z,99025.00
2019-02-27T23:52:01.234Z,99023.00
2019-02-27T23:54:28.349Z,99026.00
2019-02-27T23:56:55.428Z,99023.00
2019-02-27T23:59:22.608Z,99023.00
